sensor_id;sensor_type;location;lat;lon;timestamp;P1;durP1;ratioP1;P2;durP2;ratioP2
72369;SDS011;60343;-32.030;115.880;2023-04-19T00:02:04;4.90;;;0.68;;
72369;SDS011;60343;-32.030;115.880;2023-04-19T00:04:44;5.55;;;0.77;;
72369;SDS011;60343;-32.030;115.880;2023-04-19T00:07:19;5.15;;;0.90;;
72369;SDS011;60343;-32.030;115.880;2023-04-19T00:09:53;5.28;;;0.60;;
72369;SDS011;60343;-32.030;115.880;2023-04-19T00:12:28;3.97;;;0.70;;
72369;SDS011;60343;-32.030;115.880;2023-04-19T00:15:03;5.13;;;1.00;;
72369;SDS011;60343;-32.030;115.880;2023-04-19T00:17:38;3.05;;;0.55;;
72369;SDS011;60343;-32.030;115.880;2023-04-19T00:20:19;3.13;;;0.70;;
72369;SDS011;60343;-32.030;115.880;2023-04-19T00:22:54;3.40;;;0.60;;
72369;SDS011;60343;-32.030;115.880;2023-04-19T00:25:28;6.85;;;0.80;;
72369;SDS011;60343;-32.030;115.880;2023-04-19T00:28:03;7.40;;;1.02;;
72369;SDS011;60343;-32.030;115.880;2023-04-19T00:30:37;3.40;;;0.73;;
72369;SDS011;60343;-32.030;115.880;2023-04-19T00:33:12;5.53;;;0.70;;
72369;SDS011;60343;-32.030;115.880;2023-04-19T00:35:52;4.93;;;0.73;;
72369;SDS011;60343;-32.030;115.880;2023-04-19T00:38:26;3.25;;;0.55;;
72369;SDS011;60343;-32.030;115.880;2023-04-19T00:41:01;6.32;;;0.82;;
72369;SDS011;60343;-32.030;115.880;2023-04-19T00:43:35;4.18;;;0.70;;
72369;SDS011;60343;-32.030;115.880;2023-04-19T00:46:10;10.18;;;0.82;;
72369;SDS011;60343;-32.030;115.880;2023-04-19T00:48:46;4.72;;;0.70;;
72369;SDS011;60343;-32.030;115.880;2023-04-19T00:51:26;5.25;;;0.55;;
72369;SDS011;60343;-32.030;115.880;2023-04-19T00:54:01;1.85;;;0.43;;
72369;SDS011;60343;-32.030;115.880;2023-04-19T00:56:36;5.30;;;0.75;;
72369;SDS011;60343;-32.030;115.880;2023-04-19T00:59:12;4.03;;;0.45;;
72369;SDS011;60343;-32.030;115.880;2023-04-19T01:01:48;5.40;;;0.63;;
72369;SDS011;60343;-32.030;115.880;2023-04-19T01:04:23;6.13;;;0.60;;
72369;SDS011;60343;-32.030;115.880;2023-04-19T01:07:03;5.00;;;0.80;;
72369;SDS011;60343;-32.030;115.880;2023-04-19T01:09:39;5.93;;;0.95;;
72369;SDS011;60343;-32.030;115.880;2023-04-19T01:12:15;5.50;;;0.90;;
72369;SDS011;60343;-32.030;115.880;2023-04-19T01:14:50;4.55;;;0.70;;
72369;SDS011;60343;-32.030;115.880;2023-04-19T01:17:24;4.93;;;0.60;;
72369;SDS011;60343;-32.030;115.880;2023-04-19T01:20:00;5.97;;;0.70;;
72369;SDS011;60343;-32.030;115.880;2023-04-19T01:22:43;6.47;;;0.68;;
72369;SDS011;60343;-32.030;115.880;2023-04-19T01:25:17;6.47;;;0.85;;
72369;SDS011;60343;-32.030;115.880;2023-04-19T01:27:52;4.57;;;0.60;;
72369;SDS011;60343;-32.030;115.880;2023-04-19T01:30:27;4.03;;;0.70;;
72369;SDS011;60343;-32.030;115.880;2023-04-19T01:33:01;5.43;;;0.60;;
72369;SDS011;60343;-32.030;115.880;2023-04-19T01:35:36;3.95;;;0.60;;
72369;SDS011;60343;-32.030;115.880;2023-04-19T01:38:16;4.78;;;0.90;;
72369;SDS011;60343;-32.030;115.880;2023-04-19T01:40:50;3.67;;;0.60;;
72369;SDS011;60343;-32.030;115.880;2023-04-19T01:43:25;4.13;;;0.60;;
72369;SDS011;60343;-32.030;115.880;2023-04-19T01:45:59;5.43;;;0.70;;
72369;SDS011;60343;-32.030;115.880;2023-04-19T01:48:34;5.75;;;0.77;;
72369;SDS011;60343;-32.030;115.880;2023-04-19T01:51:08;4.63;;;0.70;;
72369;SDS011;60343;-32.030;115.880;2023-04-19T01:53:48;5.13;;;0.52;;
72369;SDS011;60343;-32.030;115.880;2023-04-19T01:56:23;5.00;;;0.70;;
72369;SDS011;60343;-32.030;115.880;2023-04-19T01:58:58;7.05;;;0.95;;
72369;SDS011;60343;-32.030;115.880;2023-04-19T02:01:32;4.57;;;0.70;;
72369;SDS011;60343;-32.030;115.880;2023-04-19T02:04:08;4.35;;;0.70;;
72369;SDS011;60343;-32.030;115.880;2023-04-19T02:06:42;8.15;;;0.80;;
72369;SDS011;60343;-32.030;115.880;2023-04-19T02:09:22;3.22;;;0.90;;
72369;SDS011;60343;-32.030;115.880;2023-04-19T02:11:57;6.05;;;0.77;;
72369;SDS011;60343;-32.030;115.880;2023-04-19T02:14:32;5.85;;;0.75;;
72369;SDS011;60343;-32.030;115.880;2023-04-19T02:17:07;4.07;;;0.88;;
72369;SDS011;60343;-32.030;115.880;2023-04-19T02:19:41;4.53;;;0.60;;
72369;SDS011;60343;-32.030;115.880;2023-04-19T02:22:16;4.22;;;0.70;;
72369;SDS011;60343;-32.030;115.880;2023-04-19T02:24:56;7.38;;;0.80;;
72369;SDS011;60343;-32.030;115.880;2023-04-19T02:27:31;5.00;;;1.05;;
72369;SDS011;60343;-32.030;115.880;2023-04-19T02:30:05;4.90;;;0.65;;
72369;SDS011;60343;-32.030;115.880;2023-04-19T02:32:41;5.70;;;0.70;;
72369;SDS011;60343;-32.030;115.880;2023-04-19T02:35:15;5.13;;;0.65;;
72369;SDS011;60343;-32.030;115.880;2023-04-19T02:37:50;9.13;;;0.90;;
72369;SDS011;60343;-32.030;115.880;2023-04-19T02:40:30;6.28;;;0.90;;
72369;SDS011;60343;-32.030;115.880;2023-04-19T02:43:05;5.75;;;0.57;;
72369;SDS011;60343;-32.030;115.880;2023-04-19T02:45:39;5.40;;;0.55;;
72369;SDS011;60343;-32.030;115.880;2023-04-19T02:48:13;6.30;;;1.15;;
72369;SDS011;60343;-32.030;115.880;2023-04-19T02:50:48;6.32;;;0.73;;
72369;SDS011;60343;-32.030;115.880;2023-04-19T02:53:22;5.20;;;0.73;;
72369;SDS011;60343;-32.030;115.880;2023-04-19T02:56:03;7.20;;;0.90;;
72369;SDS011;60343;-32.030;115.880;2023-04-19T02:58:37;3.67;;;0.88;;
72369;SDS011;60343;-32.030;115.880;2023-04-19T03:01:12;5.30;;;0.70;;
72369;SDS011;60343;-32.030;115.880;2023-04-19T03:03:47;6.32;;;0.70;;
72369;SDS011;60343;-32.030;115.880;2023-04-19T03:06:21;6.40;;;0.80;;
72369;SDS011;60343;-32.030;115.880;2023-04-19T03:08:56;10.32;;;0.80;;
72369;SDS011;60343;-32.030;115.880;2023-04-19T03:11:36;3.75;;;0.75;;
72369;SDS011;60343;-32.030;115.880;2023-04-19T03:14:11;5.80;;;0.70;;
72369;SDS011;60343;-32.030;115.880;2023-04-19T03:16:46;4.65;;;0.75;;
72369;SDS011;60343;-32.030;115.880;2023-04-19T03:19:21;5.88;;;0.65;;
72369;SDS011;60343;-32.030;115.880;2023-04-19T03:21:55;5.32;;;0.80;;
72369;SDS011;60343;-32.030;115.880;2023-04-19T03:24:30;7.30;;;0.90;;
72369;SDS011;60343;-32.030;115.880;2023-04-19T03:27:10;4.75;;;0.80;;
72369;SDS011;60343;-32.030;115.880;2023-04-19T03:29:44;5.47;;;0.68;;
72369;SDS011;60343;-32.030;115.880;2023-04-19T03:32:19;5.55;;;1.23;;
72369;SDS011;60343;-32.030;115.880;2023-04-19T03:34:54;3.00;;;0.60;;
72369;SDS011;60343;-32.030;115.880;2023-04-19T03:37:29;4.22;;;0.50;;
72369;SDS011;60343;-32.030;115.880;2023-04-19T03:40:03;6.10;;;0.80;;
72369;SDS011;60343;-32.030;115.880;2023-04-19T03:42:45;6.20;;;0.70;;
72369;SDS011;60343;-32.030;115.880;2023-04-19T03:45:19;4.20;;;0.60;;
72369;SDS011;60343;-32.030;115.880;2023-04-19T03:47:54;5.85;;;0.75;;
72369;SDS011;60343;-32.030;115.880;2023-04-19T03:50:28;6.13;;;0.70;;
72369;SDS011;60343;-32.030;115.880;2023-04-19T03:53:03;4.13;;;0.65;;
72369;SDS011;60343;-32.030;115.880;2023-04-19T03:55:38;2.70;;;0.50;;
72369;SDS011;60343;-32.030;115.880;2023-04-19T03:58:18;7.90;;;1.13;;
72369;SDS011;60343;-32.030;115.880;2023-04-19T04:00:53;5.85;;;0.73;;
72369;SDS011;60343;-32.030;115.880;2023-04-19T04:03:27;4.40;;;0.77;;
72369;SDS011;60343;-32.030;115.880;2023-04-19T04:06:02;4.97;;;0.70;;
72369;SDS011;60343;-32.030;115.880;2023-04-19T04:08:37;4.72;;;0.55;;
72369;SDS011;60343;-32.030;115.880;2023-04-19T04:11:11;7.75;;;0.68;;
72369;SDS011;60343;-32.030;115.880;2023-04-19T04:13:52;5.13;;;0.55;;
72369;SDS011;60343;-32.030;115.880;2023-04-19T04:16:26;6.88;;;0.88;;
72369;SDS011;60343;-32.030;115.880;2023-04-19T04:19:01;5.57;;;0.90;;
72369;SDS011;60343;-32.030;115.880;2023-04-19T04:21:35;8.45;;;1.13;;
72369;SDS011;60343;-32.030;115.880;2023-04-19T04:24:09;5.78;;;0.60;;
72369;SDS011;60343;-32.030;115.880;2023-04-19T04:26:45;5.13;;;0.95;;
72369;SDS011;60343;-32.030;115.880;2023-04-19T04:29:28;3.05;;;0.65;;
72369;SDS011;60343;-32.030;115.880;2023-04-19T04:32:05;7.05;;;0.70;;
72369;SDS011;60343;-32.030;115.880;2023-04-19T04:34:43;5.95;;;0.80;;
72369;SDS011;60343;-32.030;115.880;2023-04-19T04:37:17;4.68;;;0.65;;
72369;SDS011;60343;-32.030;115.880;2023-04-19T04:39:53;6.90;;;0.90;;
72369;SDS011;60343;-32.030;115.880;2023-04-19T04:42:30;4.45;;;0.63;;
72369;SDS011;60343;-32.030;115.880;2023-04-19T04:45:10;6.13;;;0.73;;
72369;SDS011;60343;-32.030;115.880;2023-04-19T04:47:45;4.32;;;0.80;;
72369;SDS011;60343;-32.030;115.880;2023-04-19T04:50:19;5.95;;;0.68;;
72369;SDS011;60343;-32.030;115.880;2023-04-19T04:52:54;7.25;;;0.95;;
72369;SDS011;60343;-32.030;115.880;2023-04-19T04:55:28;6.15;;;0.70;;
72369;SDS011;60343;-32.030;115.880;2023-04-19T04:58:03;7.43;;;0.95;;
72369;SDS011;60343;-32.030;115.880;2023-04-19T05:00:43;5.78;;;0.73;;
72369;SDS011;60343;-32.030;115.880;2023-04-19T05:03:18;3.90;;;0.90;;
72369;SDS011;60343;-32.030;115.880;2023-04-19T05:05:52;6.88;;;1.13;;
72369;SDS011;60343;-32.030;115.880;2023-04-19T05:08:27;4.82;;;0.88;;
72369;SDS011;60343;-32.030;115.880;2023-04-19T05:11:03;4.07;;;0.63;;
72369;SDS011;60343;-32.030;115.880;2023-04-19T05:13:37;5.57;;;0.93;;
72369;SDS011;60343;-32.030;115.880;2023-04-19T05:16:17;4.38;;;0.55;;
72369;SDS011;60343;-32.030;115.880;2023-04-19T05:18:52;6.00;;;0.88;;
72369;SDS011;60343;-32.030;115.880;2023-04-19T05:21:27;4.45;;;0.73;;
72369;SDS011;60343;-32.030;115.880;2023-04-19T05:24:01;5.18;;;0.75;;
72369;SDS011;60343;-32.030;115.880;2023-04-19T05:26:36;7.35;;;1.38;;
72369;SDS011;60343;-32.030;115.880;2023-04-19T05:29:10;7.28;;;0.77;;
72369;SDS011;60343;-32.030;115.880;2023-04-19T05:31:51;6.65;;;1.00;;
72369;SDS011;60343;-32.030;115.880;2023-04-19T05:34:26;6.68;;;0.77;;
72369;SDS011;60343;-32.030;115.880;2023-04-19T05:37:01;6.63;;;0.80;;
72369;SDS011;60343;-32.030;115.880;2023-04-19T05:39:35;6.15;;;0.82;;
72369;SDS011;60343;-32.030;115.880;2023-04-19T05:42:10;5.78;;;0.70;;
72369;SDS011;60343;-32.030;115.880;2023-04-19T05:44:44;5.15;;;0.60;;
72369;SDS011;60343;-32.030;115.880;2023-04-19T05:47:24;6.45;;;0.70;;
72369;SDS011;60343;-32.030;115.880;2023-04-19T05:49:58;5.45;;;0.77;;
72369;SDS011;60343;-32.030;115.880;2023-04-19T05:52:33;4.82;;;0.77;;
72369;SDS011;60343;-32.030;115.880;2023-04-19T05:55:07;6.05;;;0.95;;
72369;SDS011;60343;-32.030;115.880;2023-04-19T05:57:43;5.93;;;0.70;;
72369;SDS011;60343;-32.030;115.880;2023-04-19T06:00:17;6.38;;;0.63;;
72369;SDS011;60343;-32.030;115.880;2023-04-19T06:02:59;4.90;;;0.80;;
72369;SDS011;60343;-32.030;115.880;2023-04-19T06:05:34;2.65;;;0.43;;
72369;SDS011;60343;-32.030;115.880;2023-04-19T06:08:08;5.50;;;0.50;;
72369;SDS011;60343;-32.030;115.880;2023-04-19T06:10:42;3.35;;;0.55;;
72369;SDS011;60343;-32.030;115.880;2023-04-19T06:13:17;5.00;;;0.70;;
72369;SDS011;60343;-32.030;115.880;2023-04-19T06:15:52;3.80;;;0.80;;
72369;SDS011;60343;-32.030;115.880;2023-04-19T06:18:31;4.43;;;0.65;;
72369;SDS011;60343;-32.030;115.880;2023-04-19T06:21:06;4.85;;;0.80;;
72369;SDS011;60343;-32.030;115.880;2023-04-19T06:23:41;6.30;;;0.90;;
72369;SDS011;60343;-32.030;115.880;2023-04-19T06:26:15;5.13;;;0.65;;
72369;SDS011;60343;-32.030;115.880;2023-04-19T06:28:51;3.17;;;0.57;;
72369;SDS011;60343;-32.030;115.880;2023-04-19T06:31:26;6.07;;;0.80;;
72369;SDS011;60343;-32.030;115.880;2023-04-19T06:34:08;3.90;;;0.50;;
72369;SDS011;60343;-32.030;115.880;2023-04-19T06:36:43;6.88;;;0.90;;
72369;SDS011;60343;-32.030;115.880;2023-04-19T06:39:18;3.20;;;0.45;;
72369;SDS011;60343;-32.030;115.880;2023-04-19T06:41:53;5.88;;;0.57;;
72369;SDS011;60343;-32.030;115.880;2023-04-19T06:44:29;6.78;;;0.63;;
72369;SDS011;60343;-32.030;115.880;2023-04-19T06:47:04;4.45;;;0.70;;
72369;SDS011;60343;-32.030;115.880;2023-04-19T06:49:45;8.60;;;0.88;;
72369;SDS011;60343;-32.030;115.880;2023-04-19T06:52:21;4.80;;;0.63;;
72369;SDS011;60343;-32.030;115.880;2023-04-19T06:54:56;3.35;;;0.60;;
72369;SDS011;60343;-32.030;115.880;2023-04-19T06:57:31;5.93;;;0.85;;
72369;SDS011;60343;-32.030;115.880;2023-04-19T07:00:08;6.45;;;1.02;;
72369;SDS011;60343;-32.030;115.880;2023-04-19T07:02:46;5.88;;;0.68;;
72369;SDS011;60343;-32.030;115.880;2023-04-19T07:05:30;4.15;;;0.70;;
72369;SDS011;60343;-32.030;115.880;2023-04-19T07:08:06;6.35;;;0.80;;
72369;SDS011;60343;-32.030;115.880;2023-04-19T07:10:42;5.85;;;0.60;;
72369;SDS011;60343;-32.030;115.880;2023-04-19T07:13:18;2.45;;;0.40;;
72369;SDS011;60343;-32.030;115.880;2023-04-19T07:15:53;5.13;;;0.60;;
72369;SDS011;60343;-32.030;115.880;2023-04-19T07:18:28;3.92;;;0.68;;
72369;SDS011;60343;-32.030;115.880;2023-04-19T07:21:10;4.15;;;0.68;;
72369;SDS011;60343;-32.030;115.880;2023-04-19T07:23:45;4.85;;;0.63;;
72369;SDS011;60343;-32.030;115.880;2023-04-19T07:26:20;4.88;;;0.65;;
72369;SDS011;60343;-32.030;115.880;2023-04-19T07:28:55;5.65;;;0.70;;
72369;SDS011;60343;-32.030;115.880;2023-04-19T07:31:31;4.53;;;0.80;;
72369;SDS011;60343;-32.030;115.880;2023-04-19T07:34:07;3.78;;;0.60;;
72369;SDS011;60343;-32.030;115.880;2023-04-19T07:36:48;3.90;;;0.63;;
72369;SDS011;60343;-32.030;115.880;2023-04-19T07:39:24;3.90;;;0.52;;
72369;SDS011;60343;-32.030;115.880;2023-04-19T07:41:59;6.53;;;0.90;;
72369;SDS011;60343;-32.030;115.880;2023-04-19T07:44:34;3.60;;;0.70;;
72369;SDS011;60343;-32.030;115.880;2023-04-19T07:47:10;1.95;;;0.52;;
72369;SDS011;60343;-32.030;115.880;2023-04-19T07:49:45;6.63;;;0.60;;
72369;SDS011;60343;-32.030;115.880;2023-04-19T07:52:30;4.57;;;0.85;;
72369;SDS011;60343;-32.030;115.880;2023-04-19T07:55:05;4.80;;;0.65;;
72369;SDS011;60343;-32.030;115.880;2023-04-19T07:57:41;5.00;;;0.65;;
72369;SDS011;60343;-32.030;115.880;2023-04-19T08:00:17;3.75;;;0.60;;
72369;SDS011;60343;-32.030;115.880;2023-04-19T08:02:53;4.03;;;0.50;;
72369;SDS011;60343;-32.030;115.880;2023-04-19T08:05:29;3.38;;;0.60;;
72369;SDS011;60343;-32.030;115.880;2023-04-19T08:08:10;5.10;;;0.57;;
72369;SDS011;60343;-32.030;115.880;2023-04-19T08:10:45;5.28;;;0.80;;
72369;SDS011;60343;-32.030;115.880;2023-04-19T08:13:21;3.53;;;0.60;;
72369;SDS011;60343;-32.030;115.880;2023-04-19T08:15:56;4.07;;;0.55;;
72369;SDS011;60343;-32.030;115.880;2023-04-19T08:18:32;3.13;;;0.50;;
72369;SDS011;60343;-32.030;115.880;2023-04-19T08:21:08;4.05;;;0.60;;
72369;SDS011;60343;-32.030;115.880;2023-04-19T08:23:49;3.30;;;0.43;;
72369;SDS011;60343;-32.030;115.880;2023-04-19T08:26:25;5.32;;;0.70;;
72369;SDS011;60343;-32.030;115.880;2023-04-19T08:29:00;3.88;;;0.82;;
72369;SDS011;60343;-32.030;115.880;2023-04-19T08:31:36;5.43;;;0.75;;
72369;SDS011;60343;-32.030;115.880;2023-04-19T08:34:11;4.32;;;0.77;;
72369;SDS011;60343;-32.030;115.880;2023-04-19T08:36:46;4.03;;;0.95;;
72369;SDS011;60343;-32.030;115.880;2023-04-19T08:39:28;3.80;;;0.60;;
72369;SDS011;60343;-32.030;115.880;2023-04-19T08:42:04;3.30;;;0.50;;
72369;SDS011;60343;-32.030;115.880;2023-04-19T08:44:40;3.33;;;0.60;;
72369;SDS011;60343;-32.030;115.880;2023-04-19T08:47:16;3.78;;;0.70;;
72369;SDS011;60343;-32.030;115.880;2023-04-19T08:49:52;4.28;;;0.60;;
72369;SDS011;60343;-32.030;115.880;2023-04-19T08:52:29;6.68;;;0.88;;
72369;SDS011;60343;-32.030;115.880;2023-04-19T08:55:13;3.50;;;0.55;;
72369;SDS011;60343;-32.030;115.880;2023-04-19T08:57:49;3.35;;;0.55;;
72369;SDS011;60343;-32.030;115.880;2023-04-19T09:00:24;4.25;;;0.63;;
72369;SDS011;60343;-32.030;115.880;2023-04-19T09:03:00;4.35;;;0.50;;
72369;SDS011;60343;-32.030;115.880;2023-04-19T09:05:35;4.32;;;0.55;;
72369;SDS011;60343;-32.030;115.880;2023-04-19T09:11:09;4.22;;;0.63;;
72369;SDS011;60343;-32.030;115.880;2023-04-19T09:13:45;4.65;;;0.77;;
72369;SDS011;60343;-32.030;115.880;2023-04-19T09:16:23;4.20;;;0.70;;
72369;SDS011;60343;-32.030;115.880;2023-04-19T09:19:00;5.00;;;1.05;;
72369;SDS011;60343;-32.030;115.880;2023-04-19T09:21:35;7.07;;;1.40;;
72369;SDS011;60343;-32.030;115.880;2023-04-19T09:24:11;4.07;;;0.65;;
72369;SDS011;60343;-32.030;115.880;2023-04-19T09:26:58;4.07;;;1.10;;
72369;SDS011;60343;-32.030;115.880;2023-04-19T09:29:37;5.22;;;1.02;;
72369;SDS011;60343;-32.030;115.880;2023-04-19T09:32:12;6.30;;;1.27;;
72369;SDS011;60343;-32.030;115.880;2023-04-19T09:34:51;6.03;;;1.60;;
72369;SDS011;60343;-32.030;115.880;2023-04-19T09:37:27;7.07;;;1.40;;
72369;SDS011;60343;-32.030;115.880;2023-04-19T09:43:03;4.97;;;1.38;;
72369;SDS011;60343;-32.030;115.880;2023-04-19T09:45:39;5.75;;;1.52;;
72369;SDS011;60343;-32.030;115.880;2023-04-19T09:48:15;6.10;;;1.40;;
72369;SDS011;60343;-32.030;115.880;2023-04-19T09:50:51;3.92;;;1.25;;
72369;SDS011;60343;-32.030;115.880;2023-04-19T09:53:28;7.10;;;1.45;;
72369;SDS011;60343;-32.030;115.880;2023-04-19T09:56:05;5.70;;;1.52;;
72369;SDS011;60343;-32.030;115.880;2023-04-19T09:58:49;6.07;;;1.80;;
72369;SDS011;60343;-32.030;115.880;2023-04-19T10:01:24;6.15;;;1.73;;
72369;SDS011;60343;-32.030;115.880;2023-04-19T10:04:00;8.05;;;2.03;;
72369;SDS011;60343;-32.030;115.880;2023-04-19T10:06:38;8.15;;;1.70;;
72369;SDS011;60343;-32.030;115.880;2023-04-19T10:09:15;7.22;;;1.95;;
72369;SDS011;60343;-32.030;115.880;2023-04-19T10:11:52;5.68;;;1.42;;
72369;SDS011;60343;-32.030;115.880;2023-04-19T10:14:35;6.00;;;1.17;;
72369;SDS011;60343;-32.030;115.880;2023-04-19T10:17:11;5.88;;;1.55;;
72369;SDS011;60343;-32.030;115.880;2023-04-19T10:19:47;6.82;;;1.50;;
72369;SDS011;60343;-32.030;115.880;2023-04-19T10:22:31;7.55;;;1.50;;
72369;SDS011;60343;-32.030;115.880;2023-04-19T10:25:09;6.80;;;1.50;;
72369;SDS011;60343;-32.030;115.880;2023-04-19T10:27:45;8.45;;;1.55;;
72369;SDS011;60343;-32.030;115.880;2023-04-19T10:30:26;6.78;;;1.50;;
72369;SDS011;60343;-32.030;115.880;2023-04-19T10:33:06;6.45;;;1.45;;
72369;SDS011;60343;-32.030;115.880;2023-04-19T10:35:46;6.70;;;1.50;;
72369;SDS011;60343;-32.030;115.880;2023-04-19T10:38:36;6.05;;;1.67;;
72369;SDS011;60343;-32.030;115.880;2023-04-19T10:41:13;7.65;;;1.67;;
72369;SDS011;60343;-32.030;115.880;2023-04-19T10:44:10;9.25;;;1.80;;
72369;SDS011;60343;-32.030;115.880;2023-04-19T10:46:51;8.20;;;1.92;;
72369;SDS011;60343;-32.030;115.880;2023-04-19T10:49:27;7.95;;;1.92;;
72369;SDS011;60343;-32.030;115.880;2023-04-19T10:52:03;6.20;;;1.83;;
72369;SDS011;60343;-32.030;115.880;2023-04-19T10:54:59;8.27;;;2.13;;
72369;SDS011;60343;-32.030;115.880;2023-04-19T11:00:37;6.40;;;1.85;;
72369;SDS011;60343;-32.030;115.880;2023-04-19T11:06:22;5.68;;;1.95;;
72369;SDS011;60343;-32.030;115.880;2023-04-19T11:08:57;7.28;;;2.00;;
72369;SDS011;60343;-32.030;115.880;2023-04-19T11:14:10;5.20;;;1.60;;
72369;SDS011;60343;-32.030;115.880;2023-04-19T11:16:46;8.60;;;1.88;;
72369;SDS011;60343;-32.030;115.880;2023-04-19T11:19:21;6.80;;;1.90;;
72369;SDS011;60343;-32.030;115.880;2023-04-19T11:22:03;7.55;;;1.92;;
72369;SDS011;60343;-32.030;115.880;2023-04-19T11:24:38;8.18;;;2.35;;
72369;SDS011;60343;-32.030;115.880;2023-04-19T11:27:19;7.18;;;1.77;;
72369;SDS011;60343;-32.030;115.880;2023-04-19T11:30:01;7.05;;;2.05;;
72369;SDS011;60343;-32.030;115.880;2023-04-19T11:32:37;12.43;;;2.05;;
72369;SDS011;60343;-32.030;115.880;2023-04-19T11:35:19;8.52;;;2.13;;
72369;SDS011;60343;-32.030;115.880;2023-04-19T11:38:01;9.93;;;2.25;;
72369;SDS011;60343;-32.030;115.880;2023-04-19T11:40:37;6.97;;;1.95;;
72369;SDS011;60343;-32.030;115.880;2023-04-19T11:43:12;5.57;;;2.03;;
72369;SDS011;60343;-32.030;115.880;2023-04-19T11:45:47;7.90;;;2.38;;
72369;SDS011;60343;-32.030;115.880;2023-04-19T11:48:23;6.63;;;2.33;;
72369;SDS011;60343;-32.030;115.880;2023-04-19T11:51:00;8.75;;;2.45;;
72369;SDS011;60343;-32.030;115.880;2023-04-19T11:53:42;9.13;;;2.90;;
72369;SDS011;60343;-32.030;115.880;2023-04-19T11:56:18;13.05;;;3.92;;
72369;SDS011;60343;-32.030;115.880;2023-04-19T11:58:55;16.38;;;4.57;;
72369;SDS011;60343;-32.030;115.880;2023-04-19T12:01:31;12.00;;;4.35;;
72369;SDS011;60343;-32.030;115.880;2023-04-19T12:04:07;11.90;;;4.80;;
72369;SDS011;60343;-32.030;115.880;2023-04-19T12:06:43;14.80;;;5.95;;
72369;SDS011;60343;-32.030;115.880;2023-04-19T12:09:25;15.60;;;6.15;;
72369;SDS011;60343;-32.030;115.880;2023-04-19T12:12:01;19.15;;;8.15;;
72369;SDS011;60343;-32.030;115.880;2023-04-19T12:14:36;20.63;;;9.10;;
72369;SDS011;60343;-32.030;115.880;2023-04-19T12:17:12;24.42;;;9.40;;
72369;SDS011;60343;-32.030;115.880;2023-04-19T12:19:47;22.85;;;10.27;;
72369;SDS011;60343;-32.030;115.880;2023-04-19T12:22:23;21.70;;;9.93;;
72369;SDS011;60343;-32.030;115.880;2023-04-19T12:25:04;25.58;;;11.90;;
72369;SDS011;60343;-32.030;115.880;2023-04-19T12:27:40;26.98;;;12.68;;
72369;SDS011;60343;-32.030;115.880;2023-04-19T12:30:16;28.98;;;12.63;;
72369;SDS011;60343;-32.030;115.880;2023-04-19T12:32:51;25.73;;;12.90;;
72369;SDS011;60343;-32.030;115.880;2023-04-19T12:35:27;28.60;;;12.82;;
72369;SDS011;60343;-32.030;115.880;2023-04-19T12:38:03;28.65;;;14.25;;
72369;SDS011;60343;-32.030;115.880;2023-04-19T12:40:45;29.80;;;13.85;;
72369;SDS011;60343;-32.030;115.880;2023-04-19T12:43:20;24.23;;;12.77;;
72369;SDS011;60343;-32.030;115.880;2023-04-19T12:45:57;30.75;;;15.27;;
72369;SDS011;60343;-32.030;115.880;2023-04-19T12:48:32;30.65;;;13.95;;
72369;SDS011;60343;-32.030;115.880;2023-04-19T12:51:08;32.58;;;15.40;;
72369;SDS011;60343;-32.030;115.880;2023-04-19T12:53:46;31.77;;;15.65;;
72369;SDS011;60343;-32.030;115.880;2023-04-19T12:56:28;30.00;;;15.45;;
72369;SDS011;60343;-32.030;115.880;2023-04-19T12:59:04;32.90;;;16.25;;
72369;SDS011;60343;-32.030;115.880;2023-04-19T13:01:40;31.90;;;16.55;;
72369;SDS011;60343;-32.030;115.880;2023-04-19T13:04:15;31.35;;;15.85;;
72369;SDS011;60343;-32.030;115.880;2023-04-19T13:06:51;30.27;;;15.50;;
72369;SDS011;60343;-32.030;115.880;2023-04-19T13:09:26;33.50;;;15.98;;
72369;SDS011;60343;-32.030;115.880;2023-04-19T13:12:08;32.17;;;15.50;;
72369;SDS011;60343;-32.030;115.880;2023-04-19T13:14:44;33.22;;;14.68;;
72369;SDS011;60343;-32.030;115.880;2023-04-19T13:17:20;33.47;;;15.88;;
72369;SDS011;60343;-32.030;115.880;2023-04-19T13:19:55;35.97;;;16.40;;
72369;SDS011;60343;-32.030;115.880;2023-04-19T13:22:32;34.55;;;16.45;;
72369;SDS011;60343;-32.030;115.880;2023-04-19T13:25:07;30.08;;;15.10;;
72369;SDS011;60343;-32.030;115.880;2023-04-19T13:27:49;25.70;;;15.05;;
72369;SDS011;60343;-32.030;115.880;2023-04-19T13:30:25;30.17;;;14.60;;
72369;SDS011;60343;-32.030;115.880;2023-04-19T13:33:01;33.08;;;15.88;;
72369;SDS011;60343;-32.030;115.880;2023-04-19T13:35:36;33.25;;;15.68;;
72369;SDS011;60343;-32.030;115.880;2023-04-19T13:38:12;30.27;;;15.00;;
72369;SDS011;60343;-32.030;115.880;2023-04-19T13:40:47;26.27;;;13.57;;
72369;SDS011;60343;-32.030;115.880;2023-04-19T13:43:29;23.50;;;12.70;;
72369;SDS011;60343;-32.030;115.880;2023-04-19T13:46:04;24.88;;;11.77;;
72369;SDS011;60343;-32.030;115.880;2023-04-19T13:48:40;25.48;;;11.10;;
72369;SDS011;60343;-32.030;115.880;2023-04-19T13:51:15;23.15;;;9.77;;
72369;SDS011;60343;-32.030;115.880;2023-04-19T13:53:51;24.45;;;10.00;;
72369;SDS011;60343;-32.030;115.880;2023-04-19T13:56:27;21.63;;;9.30;;
72369;SDS011;60343;-32.030;115.880;2023-04-19T13:59:08;15.13;;;6.80;;
72369;SDS011;60343;-32.030;115.880;2023-04-19T14:01:43;13.90;;;5.78;;
72369;SDS011;60343;-32.030;115.880;2023-04-19T14:04:20;15.02;;;5.90;;
72369;SDS011;60343;-32.030;115.880;2023-04-19T14:06:56;15.07;;;6.10;;
72369;SDS011;60343;-32.030;115.880;2023-04-19T14:09:31;13.35;;;5.40;;
72369;SDS011;60343;-32.030;115.880;2023-04-19T14:12:07;8.05;;;3.00;;
72369;SDS011;60343;-32.030;115.880;2023-04-19T14:14:49;8.52;;;2.92;;
72369;SDS011;60343;-32.030;115.880;2023-04-19T14:17:24;8.40;;;2.60;;
72369;SDS011;60343;-32.030;115.880;2023-04-19T14:20:01;6.03;;;1.90;;
72369;SDS011;60343;-32.030;115.880;2023-04-19T14:22:36;5.57;;;1.67;;
72369;SDS011;60343;-32.030;115.880;2023-04-19T14:25:12;6.53;;;1.98;;
72369;SDS011;60343;-32.030;115.880;2023-04-19T14:27:48;6.60;;;1.60;;
72369;SDS011;60343;-32.030;115.880;2023-04-19T14:30:29;10.02;;;1.83;;
72369;SDS011;60343;-32.030;115.880;2023-04-19T14:33:05;4.43;;;1.20;;
72369;SDS011;60343;-32.030;115.880;2023-04-19T14:35:40;6.25;;;1.13;;
72369;SDS011;60343;-32.030;115.880;2023-04-19T14:38:16;3.50;;;0.88;;
72369;SDS011;60343;-32.030;115.880;2023-04-19T14:40:51;5.75;;;1.20;;
72369;SDS011;60343;-32.030;115.880;2023-04-19T14:43:27;3.25;;;0.88;;
72369;SDS011;60343;-32.030;115.880;2023-04-19T14:46:08;4.40;;;0.75;;
72369;SDS011;60343;-32.030;115.880;2023-04-19T14:48:44;4.25;;;0.60;;
72369;SDS011;60343;-32.030;115.880;2023-04-19T14:51:19;5.88;;;0.80;;
72369;SDS011;60343;-32.030;115.880;2023-04-19T14:53:54;4.75;;;0.80;;
72369;SDS011;60343;-32.030;115.880;2023-04-19T14:56:30;5.35;;;0.60;;
72369;SDS011;60343;-32.030;115.880;2023-04-19T14:59:05;7.20;;;1.00;;
72369;SDS011;60343;-32.030;115.880;2023-04-19T15:01:46;5.28;;;1.20;;
72369;SDS011;60343;-32.030;115.880;2023-04-19T15:04:22;2.97;;;0.60;;
72369;SDS011;60343;-32.030;115.880;2023-04-19T15:06:57;4.97;;;0.80;;
72369;SDS011;60343;-32.030;115.880;2023-04-19T15:09:33;3.80;;;0.75;;
72369;SDS011;60343;-32.030;115.880;2023-04-19T15:12:08;2.97;;;0.82;;
72369;SDS011;60343;-32.030;115.880;2023-04-19T15:14:44;3.00;;;0.80;;